Wednesday, August 15, 2018, 4:44 AM EDT
Back to Local

KFRG, Farmingdale Republic Airport

Location: Farmingdale, NY, United States Lat: 40.733
Local Time: 4:44 AM EDT ( 8:44 GMT) Lon: -73.417
Time Zone: US/Eastern Elev: 82 ft

Show me the last for .
Show Decoded

2018-08-15 03:53 METAR KFRG 150753Z AUTO 25005KT 10SM SCT110 21/19 A2983 RMK AO2 SLP100 T02110194
                 =
2018-08-15 02:53 METAR KFRG 150653Z AUTO 25006KT 10SM CLR 21/19 A2984 RMK AO2 SLP103 T02110194 =
2018-08-15 01:53 METAR KFRG 150553Z AUTO 23005KT 10SM FEW110 21/20 A2985 RMK AO2 SLP108 T02110200
                 10222 20211 55002 =
2018-08-15 00:53 METAR KFRG 150453Z AUTO 23005KT 10SM CLR 21/20 A2985 RMK AO2 SLP106 T02110200
                 402780194 =
2018-08-14 23:53 METAR KFRG 150353Z AUTO 24005KT 10SM CLR 21/20 A2985 RMK AO2 SLP108 T02110200 =
2018-08-14 22:53 METAR KFRG 150253Z AUTO 24005KT 10SM CLR 22/19 A2986 RMK AO2 SLP109 T02170194
                 50004 =
2018-08-14 21:53 METAR KFRG 150153Z 23007KT 10SM CLR 22/19 A2986 RMK AO2 SLP110 T02170194 =
2018-08-14 20:53 METAR KFRG 150053Z 23007KT 10SM CLR 22/20 A2985 RMK AO2 SLP106 T02220200 =
2018-08-14 19:53 METAR KFRG 142353Z 21006KT 10SM CLR 22/20 A2984 RMK AO2 SLP105 60043 T02220200
                 10278 20194 53005 =
2018-08-14 18:53 METAR KFRG 142253Z 21003KT 10SM FEW045 22/19 A2983 RMK AO2 LTG DSNT SE AND S
                 RAE00 TSE13 SLP100 P0000 T02170189 =
2018-08-14 18:27 METAR KFRG 142227Z 30003KT 10SM SCT049 SCT060 BKN080 21/18 A2982 RMK AO2 LTG
                 DSNT NE AND S RAE00 TSE13 P0000 T02060178 =
2018-08-14 18:19 METAR KFRG 142219Z 28006KT 10SM VCTS FEW060 FEW080 BKN110 21/18 A2982 RMK AO2
                 LTG DSNT NE AND S RAE00 TSE13 P0000 T02060178 =
2018-08-14 17:59 METAR KFRG 142159Z VRB06KT 3SM -TSRA FEW013 BKN033 OVC100 21/18 A2983 RMK AO2
                 SFC VIS 5 LTG DSNT NE AND S AND SW P0000 T02060178 =
2018-08-14 17:57 METAR KFRG 142157Z 28006G20KT 1 1/2SM -TSRA SCT015 BKN037 OVC100 21/18 A2983 RMK
                 AO2 LTG DSNT NE AND S P0000 T02060178 =
2018-08-14 17:55 METAR KFRG 142155Z VRB05G22KT 3/4SM -TSRA BR SCT012 BKN029 OVC100 20/18 A2983
                 RMK AO2 LTG DSNT NE AND S P0000 T02000178 =
2018-08-14 17:53 METAR KFRG 142153Z VRB05G22KT 1/2SM TSRA FG SCT012 BKN029 OVC110 20/18 A2983 RMK
                 AO2 PK WND 24029/2142 WSHFT 2056 LTG DSNT NE AND S RAB40 TSB41 SLP101 P0043
                 T02000178 =
2018-08-14 17:47 METAR KFRG 142147Z 29015G29KT 1/2SM +TSRA SCT012 BKN025 OVC040 21/18 A2984 RMK
                 AO2 PK WND 24029/2142 WSHFT 2056 LTG DSNT NE AND S AND W RAB40 TSB41 P0036 =
2018-08-14 17:43 METAR KFRG 142143Z 25022G29KT 1 3/4SM +TSRA FEW021 BKN035 OVC043 23/18 A2986 RMK
                 AO2 PK WND 24029/2142 WSHFT 2056 LTG DSNT NE AND S AND W RAB40 TSB41 P0011
                 T02280178 =
2018-08-14 17:16 METAR KFRG 142116Z 30005KT 10SM VCTS FEW026 SCT036 BKN044 23/17 A2985 RMK AO2
                 WSHFT 2056 LTG DSNT SW-N T02330167 =
2018-08-14 16:53 METAR KFRG 142053Z 22014KT 10SM VCTS FEW024 27/21 A2983 RMK AO2 LTG DSNT SW-N
                 SLP101 T02670206 55009 =
2018-08-14 16:39 METAR KFRG 142039Z 20012KT 10SM VCTS SCT024 SCT029 27/20 A2983 RMK AO2 LTG DSNT
                 SW-N T02670200 =
2018-08-14 16:20 METAR KFRG 142020Z 19012KT 10SM BKN023 BKN030 27/21 A2982 RMK AO2 LTG DSNT W AND
                 NW T02670206 =
2018-08-14 15:53 METAR KFRG 141953Z 21011KT 10SM FEW027 27/21 A2983 RMK AO2 LTG DSNT W SLP099
                 T02670206 =
2018-08-14 14:53 METAR KFRG 141853Z 19014KT 10SM FEW024 FEW035 27/21 A2985 RMK AO2 SLP106
                 T02720211 =
2018-08-14 13:53 METAR KFRG 141753Z 20011KT 10SM FEW034 27/21 A2986 RMK AO2 SLP110 T02720206
                 10272 20239 58011 =
2018-08-14 12:53 METAR KFRG 141653Z 19009KT 10SM CLR 27/20 A2987 RMK AO2 SLP113 T02670200 =
2018-08-14 11:53 METAR KFRG 141553Z 23008KT 10SM CLR 27/20 A2988 RMK AO2 SLP119 T02670200 =
2018-08-14 10:53 METAR KFRG 141453Z 22012KT 10SM CLR 26/18 A2989 RMK AO2 SLP121 T02610183 53002 =
2018-08-14 09:53 METAR KFRG 141353Z 22009KT 10SM FEW035 26/19 A2988 RMK AO2 SLP118 T02560194 =
2018-08-14 08:53 METAR KFRG 141253Z 21007KT 10SM CLR 24/20 A2989 RMK AO2 SLP120 T02440200 =
2018-08-14 07:53 METAR KFRG 141153Z 19005KT 10SM CLR 24/23 A2989 RMK AO2 SLP119 70009 T02390228
                 10239 20206 50006 =
2018-08-14 07:27 METAR KFRG 141127Z 15003KT 8SM SCT003 22/22 A2989 RMK AO2 T02220217 =
2018-08-14 06:53 METAR KFRG 141053Z 00000KT 1 3/4SM BKN003 21/21 A2989 RMK AO2 SFC VIS 8 SLP120
                 T02110206 =
2018-08-14 06:28 METAR KFRG 141028Z AUTO 00000KT 9SM BKN004 21/21 A2988 RMK AO2 T02060206 =
2018-08-14 06:07 METAR KFRG 141007Z AUTO 00000KT 7SM FEW005 21/20 A2988 RMK AO2 T02060200 =
2018-08-14 05:53 METAR KFRG 140953Z 00000KT 10SM CLR 21/21 A2988 RMK AO2 SLP117 T02110206 =
2018-08-14 04:53 METAR KFRG 140853Z 09003KT 10SM CLR 21/21 A2987 RMK AO2 SLP113 T02110206 56007 =

Support USWX by starting your Amazon purchase here.